Time;durP1;ratioP1;P1;durP2;ratioP2;P2;SDS_P1;SDS_P2;PMS_P1;PMS_P2;Temp;Humidity;BMP_temperature;BMP_pressure;BME280_temperature;BME280_humidity;BME280_pressure;Samples;Min_cycle;Max_cycle;Signal;HPM_P1;HPM_P2
2022/09/16 00:00:43;;;;;;;1.50;1.40;;;19.90;99.90;;;;;;10392095;28;20273;-90
2022/09/16 00:05:52;;;;;;;1.30;0.90;;;19.80;99.90;;;;;;10391530;28;20239;-90
2022/09/16 00:10:59;;;;;;;2.00;1.23;;;19.80;99.90;;;;;;10375494;28;20572;-90
2022/09/16 00:16:07;;;;;;;1.13;1.02;;;19.80;99.90;;;;;;10408793;28;20232;-90
2022/09/16 00:21:10;;;;;;;1.88;0.90;;;19.80;99.90;;;;;;10409842;28;20285;-90
2022/09/16 00:26:12;;;;;;;1.27;1.00;;;19.70;99.90;;;;;;10409474;28;20273;-90
2022/09/16 00:31:15;;;;;;;2.88;1.23;;;19.70;99.90;;;;;;10403126;28;20589;-89
2022/09/16 00:36:19;;;;;;;1.17;1.08;;;19.80;99.90;;;;;;10431842;28;20362;-90
2022/09/16 00:41:24;;;;;;;2.38;1.13;;;19.80;99.90;;;;;;10415532;28;20297;-90
2022/09/16 00:46:50;;;;;;;1.48;0.93;;;19.80;99.90;;;;;;10422298;28;20247;-90
2022/09/16 00:51:58;;;;;;;1.95;1.27;;;19.80;99.90;;;;;;10391330;28;20226;-90
2022/09/16 00:57:01;;;;;;;2.05;1.40;;;19.60;99.90;;;;;;10390863;28;20199;-90
2022/09/16 01:02:11;;;;;;;1.98;1.30;;;19.80;99.90;;;;;;10415803;28;20234;-90
2022/09/16 01:07:14;;;;;;;2.13;1.33;;;19.80;99.90;;;;;;10414484;28;20636;-89
2022/09/16 01:12:17;;;;;;;2.15;1.42;;;19.80;99.90;;;;;;10414183;28;20242;-89
2022/09/16 01:17:26;;;;;;;1.98;1.45;;;19.60;99.90;;;;;;10436265;28;20261;-90
2022/09/16 01:22:50;;;;;;;1.33;1.20;;;19.50;99.90;;;;;;10456484;28;20260;-90
2022/09/16 01:28:23;;;;;;;1.83;1.30;;;19.60;99.90;;;;;;10453194;28;20273;-90
2022/09/16 01:33:28;;;;;;;1.95;1.13;;;19.60;99.90;;;;;;10450442;28;20284;-90
2022/09/16 01:38:58;;;;;;;1.40;1.30;;;19.70;99.90;;;;;;10422028;28;20257;-90
2022/09/16 01:44:09;;;;;;;1.50;1.27;;;19.60;99.90;;;;;;10437355;28;20229;-90
2022/09/16 01:49:47;;;;;;;2.33;1.30;;;19.70;99.90;;;;;;10437123;28;20320;-90
2022/09/16 01:54:58;;;;;;;1.10;1.00;;;19.60;99.90;;;;;;10414714;28;20219;-90
2022/09/16 02:00:09;;;;;;;2.35;1.52;;;19.60;99.90;;;;;;10436706;28;20285;-90
2022/09/16 02:05:17;;;;;;;2.25;1.35;;;19.60;99.90;;;;;;10401224;28;20258;-90
2022/09/16 02:10:34;;;;;;;1.63;1.23;;;19.60;99.90;;;;;;10413737;28;20308;-90
2022/09/16 02:15:40;;;;;;;3.50;1.35;;;19.70;99.90;;;;;;10395844;28;20255;-90
2022/09/16 02:20:45;;;;;;;2.93;1.20;;;19.60;99.90;;;;;;10402851;28;20290;-90
2022/09/16 02:25:49;;;;;;;2.13;1.55;;;19.70;99.90;;;;;;10435862;28;20234;-90
2022/09/16 02:30:55;;;;;;;2.13;1.30;;;19.60;99.90;;;;;;10434603;28;20269;-90
2022/09/16 02:35:59;;;;;;;1.38;1.20;;;19.60;99.90;;;;;;10454190;28;20308;-90
2022/09/16 02:41:02;;;;;;;2.60;1.45;;;19.60;99.90;;;;;;10411185;28;20230;-90
2022/09/16 02:46:26;;;;;;;1.65;1.30;;;19.60;99.90;;;;;;10436538;28;20631;-89
2022/09/16 02:51:41;;;;;;;3.42;1.45;;;19.60;99.90;;;;;;10394020;28;20199;-90
2022/09/16 02:56:43;;;;;;;2.13;1.63;;;19.60;99.90;;;;;;10378539;28;20196;-90
2022/09/16 03:01:46;;;;;;;2.13;1.30;;;19.60;99.90;;;;;;10394331;28;20231;-91
2022/09/16 03:06:48;;;;;;;1.48;1.38;;;19.60;99.90;;;;;;10394065;28;20246;-91
2022/09/16 03:12:07;;;;;;;1.65;1.20;;;19.50;99.90;;;;;;10425770;28;20226;-89
2022/09/16 03:17:27;;;;;;;1.23;1.05;;;19.60;99.90;;;;;;10433826;28;20657;-90
2022/09/16 03:22:42;;;;;;;2.03;1.52;;;19.50;99.90;;;;;;10433973;28;20238;-89
2022/09/16 03:28:03;;;;;;;1.10;0.90;;;19.60;99.90;;;;;;10413815;28;20250;-90
2022/09/16 03:33:14;;;;;;;5.10;1.77;;;19.50;99.90;;;;;;10392666;28;20234;-90
2022/09/16 03:38:18;;;;;;;1.87;1.30;;;19.50;99.90;;;;;;10392291;28;20678;-90
2022/09/16 03:43:21;;;;;;;2.05;1.25;;;19.50;99.90;;;;;;10432551;28;20281;-90
2022/09/16 03:48:23;;;;;;;2.47;1.23;;;19.30;99.90;;;;;;10433091;28;20219;-90
2022/09/16 03:53:26;;;;;;;2.07;1.30;;;19.50;99.90;;;;;;10427429;28;20248;-90
2022/09/16 03:58:28;;;;;;;0.90;0.85;;;19.50;99.90;;;;;;10431123;28;20582;-90
2022/09/16 04:03:30;;;;;;;2.42;1.08;;;19.60;99.90;;;;;;10424665;28;20280;-90
2022/09/16 04:08:36;;;;;;;1.92;1.27;;;19.60;99.90;;;;;;10391905;28;20305;-90
2022/09/16 04:13:38;;;;;;;2.08;1.20;;;19.50;99.90;;;;;;10392205;28;20215;-90
2022/09/16 04:18:41;;;;;;;1.98;1.10;;;19.60;99.90;;;;;;10391079;28;20717;-90
2022/09/16 04:23:43;;;;;;;1.40;1.08;;;19.60;99.90;;;;;;10406573;28;20266;-90
2022/09/16 04:28:46;;;;;;;2.20;1.25;;;19.50;99.90;;;;;;10395721;28;20246;-91
2022/09/16 04:33:49;;;;;;;1.55;1.35;;;19.50;99.90;;;;;;10414227;28;20677;-90
2022/09/16 04:38:52;;;;;;;2.28;1.17;;;19.50;99.90;;;;;;10391108;28;20293;-90
2022/09/16 04:43:57;;;;;;;1.58;1.20;;;19.40;99.90;;;;;;10415325;28;20239;-89
2022/09/16 04:48:59;;;;;;;2.03;1.02;;;19.40;99.90;;;;;;10391615;28;20271;-90
2022/09/16 04:54:02;;;;;;;2.27;1.30;;;19.40;99.90;;;;;;10437627;28;20515;-90
2022/09/16 04:59:05;;;;;;;2.70;1.73;;;19.50;99.90;;;;;;10458600;28;20198;-91
2022/09/16 05:04:09;;;;;;;1.83;1.33;;;19.60;99.90;;;;;;10446386;28;20296;-90
2022/09/16 05:09:12;;;;;;;2.08;1.35;;;19.60;99.90;;;;;;10382225;28;20254;-91
2022/09/16 05:14:17;;;;;;;1.70;1.05;;;19.50;99.90;;;;;;10433313;28;20222;-91
2022/09/16 05:19:19;;;;;;;3.25;1.40;;;19.40;99.90;;;;;;10421947;28;20317;-90
2022/09/16 05:24:22;;;;;;;0.82;0.80;;;19.60;99.90;;;;;;10442173;28;20304;-91
2022/09/16 05:29:24;;;;;;;1.30;1.05;;;19.60;99.90;;;;;;10429468;28;20830;-90
2022/09/16 05:34:27;;;;;;;2.85;2.03;;;19.60;99.90;;;;;;10397909;28;20641;-90
2022/09/16 05:39:29;;;;;;;1.65;1.30;;;19.60;99.90;;;;;;10416127;28;20199;-91
2022/09/16 05:44:32;;;;;;;2.50;1.40;;;19.60;99.90;;;;;;10399563;28;20309;-95
2022/09/16 05:49:35;;;;;;;6.03;1.67;;;19.40;99.90;;;;;;10399259;28;20231;-90
2022/09/16 05:54:39;;;;;;;2.10;1.13;;;18.00;99.90;;;;;;10396446;28;20203;-92
2022/09/16 05:59:41;;;;;;;4.30;1.40;;;17.50;99.90;;;;;;10416766;28;20257;-91
2022/09/16 06:04:44;;;;;;;2.33;1.00;;;17.60;99.90;;;;;;10433607;28;20300;-91
2022/09/16 06:09:46;;;;;;;2.80;1.57;;;18.50;99.90;;;;;;10451275;28;20245;-91
2022/09/16 06:14:49;;;;;;;4.70;1.30;;;17.90;99.90;;;;;;10440929;28;20274;-95
2022/09/16 06:19:51;;;;;;;7.90;1.60;;;17.10;99.90;;;;;;10421562;28;20207;-94
2022/09/16 06:24:54;;;;;;;4.80;2.23;;;17.10;99.90;;;;;;10438632;28;20665;-95
2022/09/16 06:29:56;;;;;;;6.03;1.40;;;16.60;99.90;;;;;;10421444;28;20320;-94
2022/09/16 06:34:59;;;;;;;6.77;1.70;;;16.30;99.90;;;;;;10421087;28;20264;-93
2022/09/16 06:40:01;;;;;;;4.67;2.40;;;16.80;99.90;;;;;;10421059;28;20211;-95
2022/09/16 06:45:05;;;;;;;4.63;2.37;;;16.40;99.90;;;;;;10420746;28;20210;-94
2022/09/16 06:50:08;;;;;;;2.60;1.30;;;16.40;99.90;;;;;;10437534;28;20246;-95
2022/09/16 06:55:10;;;;;;;4.03;2.17;;;18.00;99.90;;;;;;10436662;28;20231;-94
2022/09/16 07:00:13;;;;;;;9.80;3.13;;;17.60;99.90;;;;;;10420398;28;20227;-93
2022/09/16 07:05:15;;;;;;;9.60;2.83;;;17.40;99.90;;;;;;10410665;28;20229;-92
2022/09/16 07:10:18;;;;;;;7.83;2.57;;;17.60;99.90;;;;;;10437180;28;20703;-92
2022/09/16 07:15:20;;;;;;;6.73;3.77;;;18.40;99.90;;;;;;10418044;28;20253;-91
2022/09/16 07:20:23;;;;;;;6.55;4.40;;;19.60;99.90;;;;;;10425665;28;20297;-92
2022/09/16 07:25:27;;;;;;;8.18;5.95;;;20.10;99.90;;;;;;10394007;28;20273;-93
2022/09/16 07:30:34;;;;;;;8.57;7.30;;;19.70;99.90;;;;;;10396038;28;21921;-92
2022/09/16 07:35:38;;;;;;;13.80;7.72;;;20.30;99.90;;;;;;10434818;28;20202;-92
2022/09/16 07:40:40;;;;;;;11.18;5.20;;;20.40;99.90;;;;;;10460850;28;20202;-92
2022/09/16 07:45:43;;;;;;;10.32;7.30;;;20.20;99.80;;;;;;10491617;28;20300;-92
2022/09/16 07:50:57;;;;;;;12.68;7.88;;;20.80;99.90;;;;;;10470242;28;20294;-91
2022/09/16 07:56:02;;;;;;;9.80;7.18;;;19.40;99.90;;;;;;10470976;28;20870;-92
2022/09/16 08:01:06;;;;;;;6.55;3.25;;;20.30;99.90;;;;;;10453568;28;20202;-92
2022/09/16 08:06:15;;;;;;;11.00;8.30;;;20.70;99.10;;;;;;10460827;28;20630;-92
2022/09/16 08:11:18;;;;;;;9.18;5.60;;;20.60;99.90;;;;;;10461204;28;20706;-92
2022/09/16 08:16:21;;;;;;;12.07;6.40;;;20.50;99.40;;;;;;10454073;28;20276;-91
2022/09/16 08:21:27;;;;;;;6.05;5.05;;;19.90;99.90;;;;;;10436566;28;20199;-93
2022/09/16 08:26:30;;;;;;;5.47;3.30;;;20.40;99.00;;;;;;10400410;28;20211;-92
2022/09/16 08:31:32;;;;;;;7.97;4.13;;;20.00;98.10;;;;;;10412554;28;20300;-93
2022/09/16 08:36:36;;;;;;;8.70;6.30;;;21.00;97.30;;;;;;10395225;28;20606;-92
2022/09/16 08:41:47;;;;;;;8.60;6.40;;;21.00;99.90;;;;;;10411360;28;20317;-92
2022/09/16 08:47:00;;;;;;;10.90;6.63;;;21.30;99.10;;;;;;10422056;28;20912;-90
2022/09/16 08:52:12;;;;;;;8.88;6.10;;;19.30;99.90;;;;;;10386984;28;20253;-91
2022/09/16 08:57:24;;;;;;;10.10;7.03;;;20.20;99.90;;;;;;10404693;28;20212;-90
2022/09/16 09:02:53;;;;;;;11.93;4.90;;;20.90;99.80;;;;;;10398770;28;20700;-90
2022/09/16 09:08:07;;;;;;;7.47;4.13;;;20.10;99.90;;;;;;10406422;28;20255;-91
2022/09/16 09:13:30;;;;;;;7.22;4.47;;;21.00;99.50;;;;;;10411240;28;20192;-90
2022/09/16 09:18:56;;;;;;;5.65;1.65;;;20.70;90.80;;;;;;10411205;28;20227;-91
2022/09/16 09:23:58;;;;;;;8.27;4.68;;;20.70;97.40;;;;;;10404806;28;20579;-91
2022/09/16 09:29:12;;;;;;;5.25;4.18;;;19.70;99.90;;;;;;10434238;28;20284;-90
2022/09/16 09:34:30;;;;;;;9.68;3.92;;;19.90;99.90;;;;;;10415548;28;20207;-91
2022/09/16 09:39:59;;;;;;;7.55;6.28;;;19.70;98.80;;;;;;10438202;28;20207;-90
2022/09/16 09:45:04;;;;;;;4.90;1.95;;;20.90;99.90;;;;;;10415505;28;20288;-92
2022/09/16 09:50:15;;;;;;;8.80;5.90;;;20.50;95.70;;;;;;10456120;28;20593;-91
2022/09/16 09:55:21;;;;;;;6.35;4.45;;;20.90;99.90;;;;;;10451855;28;20195;-91
2022/09/16 10:00:23;;;;;;;6.13;3.67;;;18.80;99.90;;;;;;10475497;28;20207;-91
2022/09/16 10:05:28;;;;;;;6.65;4.97;;;20.10;99.90;;;;;;10482673;28;20618;-91
2022/09/16 10:10:33;;;;;;;6.53;5.53;;;20.00;99.90;;;;;;10478701;28;20642;-91
2022/09/16 10:15:37;;;;;;;3.78;2.63;;;19.70;99.90;;;;;;10462562;28;20215;-91
2022/09/16 10:20:55;;;;;;;8.98;2.65;;;20.00;97.40;;;;;;10418346;28;20238;-96
2022/09/16 10:26:20;;;;;;;10.77;1.88;;;19.80;94.30;;;;;;10425314;28;20207;-96
2022/09/16 10:31:35;;;;;;;3.93;1.57;;;19.00;95.80;;;;;;10426524;28;20231;-96
2022/09/16 10:36:44;;;;;;;5.22;2.53;;;19.20;96.70;;;;;;10426692;28;20222;-95
2022/09/16 10:41:49;;;;;;;7.28;1.77;;;19.60;97.70;;;;;;10423998;28;20261;-96
2022/09/16 10:46:57;;;;;;;6.90;2.40;;;19.10;95.60;;;;;;10438514;28;20208;-96
2022/09/16 10:52:18;;;;;;;6.57;1.65;;;19.10;98.80;;;;;;10431830;28;20211;-96
2022/09/16 10:57:35;;;;;;;4.47;1.63;;;19.00;98.40;;;;;;10452692;28;20192;-96
2022/09/16 11:03:09;;;;;;;5.20;0.90;;;19.30;98.50;;;;;;10455627;28;20192;-90
2022/09/16 11:08:38;;;;;;;4.25;1.50;;;18.70;93.20;;;;;;10935473;22;20238;-91
2022/09/16 11:13:59;;;;;;;9.02;3.20;;;19.60;91.70;;;;;;10784722;22;21699;31
2022/09/16 11:19:09;;;;;;;4.75;1.10;;;21.10;88.30;;;;;;10645840;22;20231;-90
2022/09/16 11:24:26;;;;;;;9.05;2.53;;;20.70;87.20;;;;;;11033577;22;20261;-89
2022/09/16 11:29:41;;;;;;;8.30;3.75;;;21.20;87.30;;;;;;10503575;28;20290;-89
2022/09/16 11:55:17;;;;;;;3.70;2.80;;;22.20;83.70;;;;;;10607286;22;20597;-91
2022/09/16 12:00:20;;;;;;;7.72;4.60;;;22.00;86.80;;;;;;10573359;22;20314;-81
2022/09/16 12:05:25;;;;;;;8.07;4.28;;;21.90;88.10;;;;;;10550423;28;20255;-81
2022/09/16 12:10:37;;;;;;;7.22;3.78;;;21.20;90.50;;;;;;10550247;28;20286;-81
2022/09/16 12:16:14;;;;;;;4.93;3.38;;;22.50;85.60;;;;;;10567454;28;20232;-81
2022/09/16 12:21:34;;;;;;;5.80;2.90;;;22.20;85.70;;;;;;10540577;28;20651;-80
2022/09/16 12:26:42;;;;;;;6.28;3.22;;;22.60;81.60;;;;;;10492028;28;20255;-81
2022/09/16 12:32:16;;;;;;;3.97;2.30;;;22.00;87.90;;;;;;10567909;28;20229;-81
2022/09/16 12:37:38;;;;;;;6.47;3.85;;;22.00;85.20;;;;;;10534352;28;20698;-80
2022/09/16 12:43:06;;;;;;;2.50;1.20;;;22.50;86.00;;;;;;10549101;28;20618;-81
2022/09/16 12:48:33;;;;;;;6.10;3.80;;;22.20;77.80;;;;;;10532058;28;20259;-81
2022/09/16 12:53:48;;;;;;;4.20;1.40;;;23.00;82.50;;;;;;10533428;28;20315;-80
2022/09/16 12:59:15;;;;;;;5.53;1.70;;;22.40;84.80;;;;;;10527528;28;20261;-80
2022/09/16 13:04:41;;;;;;;2.35;0.60;;;18.50;99.90;;;;;;10561918;28;20249;-81
2022/09/16 13:09:46;;;;;;;3.22;2.15;;;17.10;99.90;;;;;;10557591;28;20296;-81
2022/09/16 13:14:55;;;;;;;2.07;0.57;;;19.50;99.10;;;;;;10556941;28;20298;-81
2022/09/16 13:20:16;;;;;;;1.73;1.40;;;16.20;99.90;;;;;;10557701;28;20286;-81
2022/09/16 13:25:21;;;;;;;3.37;0.80;;;15.90;99.90;;;;;;10561385;28;20660;-82
2022/09/16 13:30:35;;;;;;;1.97;0.80;;;15.00;99.90;;;;;;10558337;28;20724;-83
2022/09/16 13:35:42;;;;;;;2.53;0.73;;;15.10;99.90;;;;;;10540447;28;20698;-81
2022/09/16 13:40:59;;;;;;;2.30;0.90;;;16.20;99.90;;;;;;10550708;28;20690;-82
2022/09/16 13:46:14;;;;;;;4.47;2.93;;;18.20;99.90;;;;;;10551077;28;20746;-82
2022/09/16 13:51:20;;;;;;;3.00;2.60;;;19.10;99.90;;;;;;10555135;28;20698;-81
2022/09/16 13:56:32;;;;;;;3.33;0.73;;;18.20;98.40;;;;;;10531411;28;20255;-81
2022/09/16 14:02:00;;;;;;;3.30;0.70;;;17.50;93.20;;;;;;10537551;28;20272;-81
2022/09/16 14:07:12;;;;;;;2.08;1.00;;;17.30;96.90;;;;;;10518318;28;20306;-81
2022/09/16 14:12:28;;;;;;;3.05;1.88;;;18.60;91.90;;;;;;10534654;28;20637;-81
2022/09/16 14:17:44;;;;;;;4.25;3.60;;;20.50;97.40;;;;;;10535194;28;20236;-81
2022/09/16 14:23:15;;;;;;;3.92;2.70;;;21.30;97.10;;;;;;10576346;28;20313;-80
2022/09/16 14:28:20;;;;;;;6.05;3.22;;;22.00;94.40;;;;;;10575965;28;20201;-81
2022/09/16 14:33:40;;;;;;;2.35;1.70;;;21.50;95.40;;;;;;10556369;28;20618;-81
2022/09/16 14:38:57;;;;;;;3.75;2.72;;;21.70;81.40;;;;;;10577273;28;20751;-81
2022/09/16 14:44:16;;;;;;;1.50;0.75;;;22.30;91.60;;;;;;9456690;22;10000657;-81
2022/09/16 14:49:19;;;;;;;4.82;0.52;;;20.60;75.60;;;;;;10467005;28;20236;-80
2022/09/16 14:54:23;;;;;;;0.80;0.57;;;20.60;78.80;;;;;;10458235;28;20234;-81
2022/09/16 14:59:33;;;;;;;2.38;0.50;;;20.70;81.10;;;;;;10464844;28;20260;-80
2022/09/16 15:04:39;;;;;;;7.43;1.65;;;20.90;76.90;;;;;;10444495;28;20283;-80
2022/09/16 15:09:52;;;;;;;2.92;0.70;;;20.90;75.60;;;;;;10447121;28;20235;-81
2022/09/16 15:14:55;;;;;;;6.70;1.20;;;21.20;74.00;;;;;;10446250;28;20234;-81
2022/09/16 15:19:59;;;;;;;0.93;0.45;;;20.80;76.90;;;;;;10429688;28;20202;-80
2022/09/16 15:25:17;;;;;;;1.23;0.63;;;21.00;73.00;;;;;;10449115;28;21052;-82
2022/09/16 15:30:27;;;;;;;12.85;1.73;;;19.80;74.50;;;;;;10464890;28;20295;-82
2022/09/16 15:35:48;;;;;;;18.55;3.20;;;20.00;77.20;;;;;;10454113;28;20260;-81
2022/09/16 15:41:11;;;;;;;17.08;4.00;;;21.00;73.50;;;;;;10456022;28;20615;-81
2022/09/16 15:46:20;;;;;;;17.88;4.40;;;21.80;71.20;;;;;;10471693;28;20238;-81
2022/09/16 15:51:35;;;;;;;20.33;4.07;;;22.50;69.10;;;;;;10470880;28;20237;-81
2022/09/16 15:56:48;;;;;;;11.43;3.55;;;22.60;68.50;;;;;;10453719;28;20232;-82
2022/09/16 16:02:06;;;;;;;8.65;3.13;;;22.70;67.10;;;;;;10470463;28;20261;-81
2022/09/16 16:07:09;;;;;;;10.65;2.90;;;22.60;68.40;;;;;;10470361;28;20612;-82
2022/09/16 16:12:17;;;;;;;7.97;3.20;;;22.30;68.70;;;;;;10458092;28;20312;-82
2022/09/16 16:17:24;;;;;;;11.48;2.65;;;22.80;68.00;;;;;;10449252;28;20245;-81
2022/09/16 16:22:30;;;;;;;8.13;2.20;;;21.80;71.00;;;;;;10453934;28;20272;-81
2022/09/16 16:27:33;;;;;;;3.42;1.00;;;21.40;72.40;;;;;;10467787;28;20238;-81
2022/09/16 16:32:38;;;;;;;4.20;1.10;;;20.40;81.20;;;;;;10494976;28;20718;-81
2022/09/16 16:37:41;;;;;;;8.68;1.17;;;20.00;81.00;;;;;;10477274;28;20268;-81
2022/09/16 16:42:48;;;;;;;4.53;0.95;;;19.50;82.80;;;;;;10480335;28;20257;-82
2022/09/16 16:47:52;;;;;;;2.22;1.30;;;20.00;84.00;;;;;;10497492;28;20256;-82
2022/09/16 16:52:54;;;;;;;1.30;0.60;;;20.30;82.00;;;;;;10497500;28;20258;-82
2022/09/16 16:57:56;;;;;;;2.05;0.90;;;20.50;81.40;;;;;;10497149;28;20234;-82
2022/09/16 17:02:59;;;;;;;3.60;0.93;;;20.70;80.20;;;;;;10497568;28;20299;-82
2022/09/16 17:08:01;;;;;;;3.13;1.13;;;20.80;79.60;;;;;;10497383;28;20199;-82
2022/09/16 17:13:04;;;;;;;1.30;0.55;;;20.90;79.40;;;;;;10497198;28;20233;-81
2022/09/16 17:18:06;;;;;;;2.60;1.30;;;20.80;80.00;;;;;;10503679;22;20785;-81
2022/09/16 17:23:09;;;;;;;1.80;0.82;;;20.90;80.20;;;;;;10496679;28;20249;-81
2022/09/16 17:28:11;;;;;;;5.57;1.42;;;20.90;80.60;;;;;;10496249;28;20230;-81
2022/09/16 17:33:14;;;;;;;2.00;0.90;;;20.90;80.80;;;;;;10496565;28;20194;-80
2022/09/16 17:38:16;;;;;;;3.15;0.90;;;21.00;81.00;;;;;;10496089;28;20227;-79
2022/09/16 17:43:18;;;;;;;4.22;0.75;;;21.00;81.10;;;;;;10477813;28;20230;-79
2022/09/16 17:48:21;;;;;;;3.03;1.35;;;20.90;82.10;;;;;;10495711;28;20236;-79
2022/09/16 17:53:24;;;;;;;4.97;1.20;;;20.70;83.20;;;;;;10477729;28;20232;-79
2022/09/16 17:58:26;;;;;;;2.53;0.90;;;20.70;84.00;;;;;;10495289;28;20226;-79
2022/09/16 18:03:29;;;;;;;2.60;1.25;;;20.70;84.70;;;;;;10493453;28;20257;-79
2022/09/16 18:08:31;;;;;;;1.83;1.10;;;20.70;84.70;;;;;;10477413;28;20347;-79
2022/09/16 18:13:35;;;;;;;3.15;1.15;;;20.50;86.10;;;;;;10494746;28;20202;-79
2022/09/16 18:18:39;;;;;;;2.38;1.08;;;20.60;84.40;;;;;;10494757;28;20272;-79
2022/09/16 18:23:43;;;;;;;2.67;1.50;;;20.80;86.10;;;;;;10476559;28;20253;-79
2022/09/16 18:28:46;;;;;;;4.05;1.30;;;20.70;86.60;;;;;;10475971;28;20287;-79
2022/09/16 18:34:09;;;;;;;2.03;1.27;;;20.80;86.50;;;;;;10493438;28;20291;-79
2022/09/16 18:39:15;;;;;;;3.88;1.52;;;20.60;87.30;;;;;;10475980;28;20242;-79
2022/09/16 18:44:20;;;;;;;3.05;1.48;;;20.60;84.50;;;;;;10458198;28;20332;-79
2022/09/16 18:49:26;;;;;;;2.67;1.40;;;20.60;88.20;;;;;;10474956;28;20583;-79
2022/09/16 18:54:29;;;;;;;3.28;1.48;;;20.50;89.00;;;;;;10474981;28;20488;-79
2022/09/16 18:59:33;;;;;;;1.80;1.25;;;20.50;89.60;;;;;;10492598;28;20781;-79
2022/09/16 19:04:41;;;;;;;2.85;1.50;;;20.60;89.80;;;;;;10492420;28;20316;-80
2022/09/16 19:09:44;;;;;;;3.67;1.30;;;20.50;90.10;;;;;;10492056;28;20233;-81
2022/09/16 19:14:47;;;;;;;2.40;1.52;;;20.40;90.40;;;;;;10491331;28;20254;-80
2022/09/16 19:19:49;;;;;;;1.70;1.17;;;20.50;90.30;;;;;;10492110;28;20230;-80
2022/09/16 19:24:53;;;;;;;1.85;1.48;;;20.60;90.20;;;;;;10492139;28;20250;-80
2022/09/16 19:29:55;;;;;;;2.50;1.48;;;20.70;90.30;;;;;;10474110;28;20261;-80
2022/09/16 19:34:58;;;;;;;1.52;1.42;;;20.60;90.50;;;;;;10474053;28;20229;-80
2022/09/16 19:40:01;;;;;;;3.05;1.70;;;20.70;90.60;;;;;;10488735;28;20241;-80
2022/09/16 19:45:03;;;;;;;5.53;2.70;;;20.80;90.50;;;;;;10498514;28;20257;-80
2022/09/16 19:50:06;;;;;;;5.75;2.72;;;19.50;97.10;;;;;;10522556;22;20233;-91
2022/09/16 19:55:09;;;;;;;4.30;3.90;;;20.40;95.50;;;;;;10454997;28;20267;-91
2022/09/16 20:00:14;;;;;;;7.60;5.88;;;20.90;94.00;;;;;;10477015;28;20248;-92
2022/09/16 20:05:17;;;;;;;5.80;5.28;;;21.50;92.30;;;;;;10496079;28;20295;-91
2022/09/16 20:10:20;;;;;;;7.18;4.90;;;21.90;91.30;;;;;;10480766;28;20233;-92
2022/09/16 20:15:23;;;;;;;10.05;6.45;;;22.00;90.50;;;;;;10464268;28;20338;-91
2022/09/16 20:20:26;;;;;;;6.88;5.75;;;22.20;90.20;;;;;;10479033;28;20276;-92
2022/09/16 20:25:28;;;;;;;8.13;5.72;;;22.20;90.10;;;;;;10492897;28;20255;-91
2022/09/16 20:30:31;;;;;;;5.05;4.55;;;22.30;90.00;;;;;;10439536;28;20227;-92
2022/09/16 20:35:33;;;;;;;7.10;6.43;;;22.40;87.30;;;;;;10458021;28;20249;-91
2022/09/16 20:40:36;;;;;;;7.60;5.95;;;22.60;88.70;;;;;;10455911;28;20210;-92
2022/09/16 20:45:39;;;;;;;7.38;6.07;;;22.60;88.30;;;;;;10497678;28;20250;-92
2022/09/16 20:50:41;;;;;;;7.35;5.45;;;22.70;87.80;;;;;;10497732;28;20643;-91
2022/09/16 20:55:44;;;;;;;7.28;5.90;;;22.70;87.60;;;;;;10462332;28;20229;-92
2022/09/16 21:00:46;;;;;;;6.72;6.05;;;22.70;87.60;;;;;;10494674;28;20214;-91
2022/09/16 21:05:49;;;;;;;6.80;5.80;;;22.70;87.60;;;;;;10496885;28;20303;-92
2022/09/16 21:10:52;;;;;;;5.97;5.38;;;22.70;87.80;;;;;;10484852;28;20203;-91
2022/09/16 21:15:56;;;;;;;6.13;4.80;;;22.60;88.20;;;;;;10438094;28;20199;-90
2022/09/16 21:21:13;;;;;;;8.48;5.60;;;22.50;88.50;;;;;;10514957;28;20263;-90
2022/09/16 21:26:20;;;;;;;8.40;5.57;;;22.50;88.80;;;;;;10478962;28;20760;-90
2022/09/16 21:31:24;;;;;;;8.07;5.13;;;22.50;89.00;;;;;;10495453;28;20279;-90
2022/09/16 21:36:27;;;;;;;6.80;5.10;;;22.50;88.80;;;;;;10467101;28;20199;-90
2022/09/16 21:41:30;;;;;;;6.10;4.55;;;22.40;89.10;;;;;;10491753;28;20199;-90
2022/09/16 21:46:39;;;;;;;8.00;5.57;;;22.40;89.60;;;;;;10477290;28;20315;-91
2022/09/16 21:51:43;;;;;;;6.22;5.40;;;22.40;89.50;;;;;;10476986;28;20287;-91
2022/09/16 21:56:45;;;;;;;5.05;4.50;;;22.30;89.90;;;;;;10493791;28;20252;-90
2022/09/16 22:01:49;;;;;;;6.38;5.60;;;22.20;90.50;;;;;;10494148;28;20244;-90
2022/09/16 22:06:54;;;;;;;6.38;5.22;;;22.30;90.20;;;;;;10475860;28;20257;-90
2022/09/16 22:11:56;;;;;;;7.45;5.10;;;22.20;90.00;;;;;;10476118;28;20664;-91
2022/09/16 22:16:59;;;;;;;6.07;5.10;;;22.10;90.40;;;;;;10475729;28;20309;-91
2022/09/16 22:22:02;;;;;;;6.32;4.93;;;22.20;90.30;;;;;;10474866;28;20587;-91
2022/09/16 22:27:04;;;;;;;4.53;4.13;;;22.10;90.60;;;;;;10474732;28;20280;-90
2022/09/16 22:32:06;;;;;;;5.05;4.28;;;22.10;90.30;;;;;;10475897;28;20217;-91
2022/09/16 22:37:09;;;;;;;5.95;5.03;;;22.10;90.50;;;;;;10450901;28;20237;-90
2022/09/16 22:42:11;;;;;;;5.20;4.70;;;21.90;90.40;;;;;;10514146;28;20615;-91
2022/09/16 22:47:14;;;;;;;5.22;4.72;;;22.10;90.60;;;;;;10491185;28;20226;-91
2022/09/16 22:52:16;;;;;;;5.28;4.78;;;22.10;90.50;;;;;;10474741;28;20254;-90
2022/09/16 22:57:19;;;;;;;4.93;4.43;;;22.00;90.50;;;;;;10452296;28;20279;-90
2022/09/16 23:02:22;;;;;;;5.45;4.75;;;22.00;90.60;;;;;;10490629;28;20288;-90
2022/09/16 23:07:24;;;;;;;6.10;4.93;;;22.00;90.80;;;;;;10474519;28;20232;-91
2022/09/16 23:12:27;;;;;;;5.45;4.50;;;22.00;90.90;;;;;;10475892;28;20233;-90
2022/09/16 23:17:29;;;;;;;5.68;4.43;;;22.00;90.70;;;;;;10491987;28;20226;-90
2022/09/16 23:22:32;;;;;;;5.95;4.90;;;21.90;90.80;;;;;;10455232;28;20249;-91
2022/09/16 23:27:34;;;;;;;5.93;4.60;;;22.00;90.80;;;;;;10473268;28;20263;-90
2022/09/16 23:32:37;;;;;;;5.00;4.30;;;21.90;90.90;;;;;;10490994;28;20230;-90
2022/09/16 23:37:41;;;;;;;5.82;4.43;;;21.80;91.20;;;;;;10508068;28;20205;-91
2022/09/16 23:42:43;;;;;;;5.40;4.32;;;21.90;91.10;;;;;;10492966;28;20291;-90
2022/09/16 23:47:45;;;;;;;5.70;4.20;;;21.90;91.10;;;;;;10473302;28;20316;-90
2022/09/16 23:52:57;;;;;;;5.00;4.22;;;21.70;91.70;;;;;;10523806;28;20225;-90
2022/09/16 23:58:00;;;;;;;4.75;4.00;;;21.70;91.40;;;;;;10471892;28;20234;-90
